Time;durP1;ratioP1;P1;durP2;ratioP2;P2;SDS_P1;SDS_P2;PMS_P1;PMS_P2;Temp;Humidity;BMP_temperature;BMP_pressure;BME280_temperature;BME280_humidity;BME280_pressure;Samples;Min_cycle;Max_cycle;Signal;HPM_P1;HPM_P2
2023/10/19 04:00:45;;;;;;;;;;;12.00;99.90;;;;;;5832470;23;20255;-67
2023/10/19 04:03:11;;;;;;;;;;;12.00;99.90;;;;;;5032974;28;19925;-66
2023/10/19 04:05:38;;;;;;;;;;;12.00;99.90;;;;;;5030543;28;20000;-68
2023/10/19 04:08:14;;;;;;;;;;;11.90;99.90;;;;;;5015951;28;19924;-67
2023/10/19 04:10:44;;;;;;;;;;;11.90;99.90;;;;;;5009817;28;20273;-67
2023/10/19 04:13:10;;;;;;;;;;;11.90;99.90;;;;;;4995776;28;20010;-67
2023/10/19 04:15:36;;;;;;;;;;;12.00;99.90;;;;;;5008345;23;19926;-67
2023/10/19 04:18:10;;;;;;;;;;;11.90;99.90;;;;;;4977571;28;19910;-68
2023/10/19 04:20:54;;;;;;;;;;;11.80;99.90;;;;;;4978618;28;19917;-67
2023/10/19 04:23:27;;;;;;;;;;;11.80;99.90;;;;;;4979552;28;19953;-67
2023/10/19 04:25:56;;;;;;;;;;;11.80;99.90;;;;;;4978985;28;20347;-68
2023/10/19 04:28:30;;;;;;;;;;;11.90;99.90;;;;;;4979252;28;19910;-68
2023/10/19 04:31:06;;;;;;;;;;;11.80;99.90;;;;;;4977446;28;19972;-68
2023/10/19 04:33:32;;;;;;;;;;;11.90;99.90;;;;;;4976164;28;19911;-68
2023/10/19 04:35:59;;;;;;;;;;;11.80;99.90;;;;;;4977374;28;19910;-68
2023/10/19 04:38:25;;;;;;;;;;;11.80;99.90;;;;;;4976105;28;20391;-68
2023/10/19 04:40:51;;;;;;;;;;;11.70;99.90;;;;;;4977591;28;19910;-69
2023/10/19 04:43:16;;;;;;;;;;;11.80;99.90;;;;;;4977138;28;20252;-70
2023/10/19 04:45:44;;;;;;;;;;;11.80;99.90;;;;;;4975908;28;19914;-69
2023/10/19 04:48:10;;;;;;;;;;;11.70;99.90;;;;;;4977994;28;19910;-69
2023/10/19 04:50:35;;;;;;;;;;;11.60;99.90;;;;;;4977990;28;19910;-70
2023/10/19 04:53:00;;;;;;;;;;;11.60;99.90;;;;;;4977663;28;19910;-65
2023/10/19 04:55:27;;;;;;;;;;;11.50;99.90;;;;;;4975994;28;19910;-67
2023/10/19 04:57:52;;;;;;;;;;;11.50;99.90;;;;;;4977257;28;19911;-68
2023/10/19 05:00:20;;;;;;;;;;;11.40;99.90;;;;;;4976797;28;20284;-69
2023/10/19 05:02:46;;;;;;;;;;;11.40;99.90;;;;;;4968667;28;19918;-69
2023/10/19 05:05:13;;;;;;;;;;;11.50;99.90;;;;;;4975788;28;19914;-66
2023/10/19 05:07:39;;;;;;;;;;;11.50;99.90;;;;;;4954902;28;19914;-66
2023/10/19 05:10:05;;;;;;;;;;;11.40;99.90;;;;;;4952803;28;19925;-68
2023/10/19 05:12:30;;;;;;;;;;;11.40;99.90;;;;;;4945546;29;19919;-67
2023/10/19 05:14:56;;;;;;;;;;;11.40;99.90;;;;;;4946234;28;19918;-65
2023/10/19 05:17:23;;;;;;;;;;;11.40;99.90;;;;;;4943699;29;19918;-65
2023/10/19 05:19:49;;;;;;;;;;;11.40;99.90;;;;;;4949098;28;19911;-66
2023/10/19 05:22:15;;;;;;;;;;;11.40;99.90;;;;;;4947570;28;19957;-66
2023/10/19 05:24:42;;;;;;;;;;;11.40;99.90;;;;;;4943479;28;19915;-67
2023/10/19 05:27:09;;;;;;;;;;;11.40;99.90;;;;;;4937938;29;19917;-66
2023/10/19 05:29:35;;;;;;;;;;;11.40;99.90;;;;;;4937575;29;19914;-67
2023/10/19 05:32:02;;;;;;;;;;;11.40;99.90;;;;;;4943655;28;19911;-67
2023/10/19 05:34:29;;;;;;;;;;;11.40;99.90;;;;;;4976289;28;19910;-67
2023/10/19 05:36:58;;;;;;;;;;;11.50;99.90;;;;;;4975176;28;19911;-67
2023/10/19 05:39:27;;;;;;;;;;;11.50;99.90;;;;;;4975032;28;19919;-64
2023/10/19 05:41:53;;;;;;;;;;;11.50;99.90;;;;;;4976383;28;20284;-65
2023/10/19 05:44:19;;;;;;;;;;;11.40;99.90;;;;;;4975962;28;19921;-64
2023/10/19 05:46:46;;;;;;;;;;;11.40;99.90;;;;;;4975367;28;19914;-63
2023/10/19 05:49:12;;;;;;;;;;;11.40;99.90;;;;;;4975876;28;19910;-63
2023/10/19 05:51:38;;;;;;;;;;;11.50;99.90;;;;;;4975865;28;20288;-63
2023/10/19 05:54:04;;;;;;;;;;;11.50;99.90;;;;;;4975784;28;19910;-64
2023/10/19 05:56:30;;;;;;;;;;;11.50;99.90;;;;;;4975982;28;19917;-64
2023/10/19 05:58:56;;;;;;;;;;;11.50;99.90;;;;;;4976045;28;19910;-64
2023/10/19 06:01:22;;;;;;;;;;;11.40;99.90;;;;;;4975799;28;19917;-64
2023/10/19 06:03:47;;;;;;;;;;;11.50;99.90;;;;;;4975562;28;19918;-65
2023/10/19 06:06:13;;;;;;;;;;;11.50;99.90;;;;;;4975301;28;19917;-64
2023/10/19 06:08:39;;;;;;;;;;;11.50;99.90;;;;;;4978888;28;19910;-64
2023/10/19 06:11:05;;;;;;;;;;;11.50;99.90;;;;;;4978869;28;19961;-64
2023/10/19 06:13:32;;;;;;;;;;;11.50;99.90;;;;;;4975383;28;19946;-64
2023/10/19 06:15:57;;;;;;;;;;;11.50;99.90;;;;;;4975121;28;20288;-64
2023/10/19 06:18:22;;;;;;;;;;;11.50;99.90;;;;;;4975775;28;19939;-64
2023/10/19 06:20:50;;;;;;;;;;;11.50;99.90;;;;;;4976467;28;19962;-64
2023/10/19 06:23:16;;;;;;;;;;;11.50;99.90;;;;;;4975644;28;19918;-64
2023/10/19 06:25:43;;;;;;;;;;;11.50;99.90;;;;;;4975523;28;20360;-65
2023/10/19 06:28:09;;;;;;;;;;;11.50;99.90;;;;;;4975866;28;19953;-65
2023/10/19 06:30:34;;;;;;;;;;;11.50;99.90;;;;;;4975132;28;19910;-64
2023/10/19 06:33:03;;;;;;;;;;;11.60;99.90;;;;;;4975548;28;20353;-64
2023/10/19 06:35:31;;;;;;;;;;;11.60;99.90;;;;;;4974255;28;19910;-64
2023/10/19 06:37:57;;;;;;;;;;;11.60;99.90;;;;;;4975112;28;20365;-64
2023/10/19 06:40:23;;;;;;;;;;;11.70;99.90;;;;;;4973768;28;19916;-64
2023/10/19 06:42:51;;;;;;;;;;;11.80;99.90;;;;;;4974106;28;20379;-63
2023/10/19 06:45:18;;;;;;;;;;;11.90;99.90;;;;;;4975837;28;19914;-63
2023/10/19 06:47:45;;;;;;;;;;;12.00;99.90;;;;;;4976921;28;19911;-63
2023/10/19 06:50:11;;;;;;;;;;;12.00;99.90;;;;;;4981214;28;19910;-63
2023/10/19 06:52:38;;;;;;;;;;;12.10;99.90;;;;;;4984248;28;19957;-64
2023/10/19 06:55:04;;;;;;;;;;;12.10;99.90;;;;;;4986965;28;19938;-65
2023/10/19 06:57:30;;;;;;;;;;;12.20;99.90;;;;;;4984180;28;19925;-64
2023/10/19 06:59:56;;;;;;;;;;;12.20;99.90;;;;;;4979251;28;19947;-65
2023/10/19 07:02:21;;;;;;;;;;;12.30;99.90;;;;;;4975107;28;19910;-65
2023/10/19 07:04:47;;;;;;;;;;;12.30;99.90;;;;;;4974628;28;20021;-64
2023/10/19 07:07:13;;;;;;;;;;;12.30;99.90;;;;;;4974762;28;19961;-64
2023/10/19 07:09:39;;;;;;;;;;;12.40;99.90;;;;;;4974640;28;20001;-64
2023/10/19 07:12:04;;;;;;;;;;;12.40;99.90;;;;;;4974530;28;19957;-64
2023/10/19 07:14:32;;;;;;;;;;;12.50;99.90;;;;;;4974478;28;19918;-64
2023/10/19 07:16:57;;;;;;;;;;;12.50;99.90;;;;;;4974270;28;20016;-64
2023/10/19 07:19:23;;;;;;;;;;;12.50;99.90;;;;;;4974516;28;19961;-65
2023/10/19 07:21:49;;;;;;;;;;;12.50;99.90;;;;;;4975385;28;19945;-63
2023/10/19 07:24:15;;;;;;;;;;;12.50;99.90;;;;;;4975739;28;19914;-63
2023/10/19 07:26:53;;;;;;;;;;;12.50;99.90;;;;;;4974908;28;19917;-65
2023/10/19 07:29:19;;;;;;;;;;;12.60;99.90;;;;;;4974845;28;19910;-63
2023/10/19 07:31:45;;;;;;;;;;;12.60;99.90;;;;;;4974087;28;20381;-64
2023/10/19 07:34:14;;;;;;;;;;;12.60;99.90;;;;;;4974844;28;19918;-64
2023/10/19 07:36:42;;;;;;;;;;;12.70;99.90;;;;;;4957032;28;19917;-64
2023/10/19 07:39:13;;;;;;;;;;;12.70;99.90;;;;;;4955123;28;19914;-63
2023/10/19 07:41:40;;;;;;;;;;;12.80;99.90;;;;;;4955429;28;19973;-64
2023/10/19 07:44:05;;;;;;;;;;;12.90;99.90;;;;;;4955373;28;19932;-64
2023/10/19 07:46:31;;;;;;;;;;;13.00;99.90;;;;;;4957267;28;19910;-64
2023/10/19 07:48:59;;;;;;;;;;;13.10;99.90;;;;;;4958856;28;19911;-64
2023/10/19 07:51:25;;;;;;;;;;;13.20;99.90;;;;;;4959458;28;19962;-65
2023/10/19 07:53:51;;;;;;;;;;;13.30;99.90;;;;;;4945110;29;19911;-67
2023/10/19 07:56:17;;;;;;;;;;;13.50;99.90;;;;;;4939242;29;19925;-67
2023/10/19 07:58:42;;;;;;;;;;;13.50;99.90;;;;;;4938036;29;19997;-66
2023/10/19 08:01:08;;;;;;;;;;;13.60;99.90;;;;;;4939881;29;19944;-67
2023/10/19 08:03:35;;;;;;;;;;;13.80;99.90;;;;;;4954315;29;19922;-67
2023/10/19 08:06:00;;;;;;;;;;;13.90;99.90;;;;;;4958575;28;19910;-67
2023/10/19 08:08:33;;;;;;;;;;;14.00;99.90;;;;;;4958326;28;20021;-67
2023/10/19 08:10:58;;;;;;;;;;;14.10;99.90;;;;;;4958704;28;19953;-66
2023/10/19 08:13:26;;;;;;;;;;;14.20;99.90;;;;;;4958396;28;19914;-67
2023/10/19 08:15:51;;;;;;;;;;;14.30;99.90;;;;;;4958032;28;19934;-67
2023/10/19 08:18:17;;;;;;;;;;;14.50;99.90;;;;;;4959031;28;20337;-66
2023/10/19 08:20:45;;;;;;;;;;;14.60;99.90;;;;;;4959136;28;19910;-67
2023/10/19 08:23:13;;;;;;;;;;;14.70;99.90;;;;;;4958815;28;19969;-67
2023/10/19 08:25:39;;;;;;;;;;;14.80;99.90;;;;;;4958178;28;19910;-66
2023/10/19 08:28:04;;;;;;;;;;;14.90;99.90;;;;;;4958094;28;19974;-66
2023/10/19 08:30:30;;;;;;;;;;;15.00;99.90;;;;;;4959820;28;20008;-66
2023/10/19 08:32:57;;;;;;;;;;;15.10;99.90;;;;;;4968237;28;20238;-67
2023/10/19 08:35:26;;;;;;;;;;;15.20;99.90;;;;;;4978036;28;19910;-64
2023/10/19 08:37:52;;;;;;;;;;;15.20;99.90;;;;;;4977511;28;19968;-67
2023/10/19 08:40:19;;;;;;;;;;;15.20;99.90;;;;;;4977221;28;19910;-67
2023/10/19 08:42:48;;;;;;;;;;;15.30;99.90;;;;;;4977247;28;19910;-67
2023/10/19 08:45:14;;;;;;;;;;;15.30;99.90;;;;;;4976788;28;19914;-64
2023/10/19 08:47:48;;;;;;;;;;;15.30;99.90;;;;;;4976750;28;21282;-65
2023/10/19 08:50:14;;;;;;;;;;;15.40;99.90;;;;;;4977355;28;19914;-65
2023/10/19 08:52:42;;;;;;;;;;;15.50;99.90;;;;;;4977221;28;20266;-65
2023/10/19 08:55:09;;;;;;;;;;;15.50;99.90;;;;;;4976877;28;20357;-64
2023/10/19 08:57:36;;;;;;;;;;;15.60;99.90;;;;;;4975946;28;19914;-64
2023/10/19 09:00:06;;;;;;;;;;;15.70;99.90;;;;;;4976548;28;19961;-64
2023/10/19 09:02:33;;;;;;;;;;;15.70;99.90;;;;;;4977085;28;19917;-65
2023/10/19 09:04:59;;;;;;;;;;;15.80;99.90;;;;;;4976735;28;19914;-67
2023/10/19 09:07:30;;;;;;;;;;;15.90;99.90;;;;;;4976760;28;19914;-66
2023/10/19 09:09:57;;;;;;;;;;;16.00;99.90;;;;;;4976992;28;20008;-66
2023/10/19 09:12:22;;;;;;;;;;;16.00;99.90;;;;;;4976410;28;20444;-64
2023/10/19 09:14:49;;;;;;;;;;;16.20;99.90;;;;;;4974932;28;19918;-64
2023/10/19 09:17:17;;;;;;;;;;;16.30;99.90;;;;;;4976551;28;20325;-65
2023/10/19 09:19:44;;;;;;;;;;;16.30;99.90;;;;;;4976561;28;19910;-62
2023/10/19 09:22:22;;;;;;;;;;;16.40;99.90;;;;;;4976838;28;19916;-67
2023/10/19 09:24:49;;;;;;;;;;;16.60;99.90;;;;;;4975293;28;19914;-67
2023/10/19 09:27:18;;;;;;;;;;;16.60;99.90;;;;;;4976375;28;19944;-67
2023/10/19 09:29:44;;;;;;;;;;;16.70;99.90;;;;;;4976213;28;20350;-66
2023/10/19 09:32:11;;;;;;;;;;;16.90;99.90;;;;;;4975853;28;19914;-67
2023/10/19 09:34:37;;;;;;;;;;;17.00;99.90;;;;;;4976196;28;19957;-67
2023/10/19 09:37:03;;;;;;;;;;;17.10;99.90;;;;;;4977018;28;20429;-66
2023/10/19 09:39:34;;;;;;;;;;;17.20;99.90;;;;;;4975232;28;19952;-66
2023/10/19 09:42:06;;;;;;;;;;;17.20;99.90;;;;;;4976307;28;19961;-66
2023/10/19 09:44:42;;;;;;;;;;;17.20;99.90;;;;;;4975912;28;19914;-67
2023/10/19 09:47:12;;;;;;;;;;;17.30;99.90;;;;;;4975503;28;20369;-66
2023/10/19 09:49:38;;;;;;;;;;;17.30;99.90;;;;;;4975781;28;19911;-66
2023/10/19 09:52:04;;;;;;;;;;;17.30;99.90;;;;;;4975792;28;20000;-66
2023/10/19 09:54:37;;;;;;;;;;;17.30;99.90;;;;;;4975645;28;19949;-66
2023/10/19 09:57:10;;;;;;;;;;;17.40;99.90;;;;;;4976097;28;19910;-67
2023/10/19 09:59:38;;;;;;;;;;;17.40;99.90;;;;;;4975797;28;19992;-67
2023/10/19 10:02:12;;;;;;;;;;;17.50;99.90;;;;;;4975515;28;19910;-67
2023/10/19 10:04:38;;;;;;;;;;;17.40;99.90;;;;;;4975805;28;20273;-68
2023/10/19 10:07:07;;;;;;;;;;;17.30;99.90;;;;;;4976119;28;19930;-68
2023/10/19 10:09:40;;;;;;;;;;;17.30;99.90;;;;;;4975575;28;20277;-68
2023/10/19 10:12:26;;;;;;;;;;;17.20;99.90;;;;;;4975834;28;19910;-67
2023/10/19 10:14:54;;;;;;;;;;;17.10;99.90;;;;;;4975879;28;19921;-65
2023/10/19 10:17:20;;;;;;;;;;;17.00;99.90;;;;;;4975334;28;19914;-64
2023/10/19 10:19:47;;;;;;;;;;;16.90;99.90;;;;;;4975415;28;19914;-64
2023/10/19 10:22:14;;;;;;;;;;;16.70;99.90;;;;;;4975629;28;19910;-62
2023/10/19 10:24:43;;;;;;;;;;;16.60;99.90;;;;;;4975666;28;19956;-62
2023/10/19 10:27:09;;;;;;;;;;;16.50;99.90;;;;;;4975393;28;19914;-64
2023/10/19 10:29:35;;;;;;;;;;;16.40;99.90;;;;;;4976034;28;19914;-64
2023/10/19 10:32:01;;;;;;;;;;;16.30;99.90;;;;;;4975091;28;19910;-64
2023/10/19 10:34:42;;;;;;;;;;;16.20;99.90;;;;;;4975099;28;20388;-62
2023/10/19 10:37:08;;;;;;;;;;;16.10;99.90;;;;;;4975801;28;19933;-61
2023/10/19 10:39:37;;;;;;;;;;;16.00;99.90;;;;;;4975288;28;20056;-63
2023/10/19 10:42:05;;;;;;;;;;;15.90;99.90;;;;;;4975526;28;20000;-62
2023/10/19 10:44:39;;;;;;;;;;;15.80;99.90;;;;;;4973827;28;20369;-61
2023/10/19 10:47:08;;;;;;;;;;;15.70;99.90;;;;;;4975059;28;19914;-62
2023/10/19 10:49:33;;;;;;;;;;;15.70;99.90;;;;;;4975695;28;20369;-60
2023/10/19 10:51:59;;;;;;;;;;;15.60;99.90;;;;;;4976366;28;19957;-66
2023/10/19 10:54:24;;;;;;;;;;;15.60;99.90;;;;;;4985359;28;19917;-67
2023/10/19 10:56:50;;;;;;;;;;;15.50;99.90;;;;;;4987603;28;19910;-67
2023/10/19 10:59:15;;;;;;;;;;;15.50;99.90;;;;;;4986181;28;19921;-66
2023/10/19 11:01:42;;;;;;;;;;;15.50;99.90;;;;;;4973678;28;20269;-66
2023/10/19 11:04:09;;;;;;;;;;;15.60;99.90;;;;;;4974868;28;19961;-66
2023/10/19 11:06:48;;;;;;;;;;;15.40;99.90;;;;;;4975114;28;19914;-65
2023/10/19 11:09:18;;;;;;;;;;;15.50;99.90;;;;;;4975110;28;20013;-67
2023/10/19 11:11:44;;;;;;;;;;;15.40;99.90;;;;;;4973771;28;19910;-66
2023/10/19 11:14:11;;;;;;;;;;;15.40;99.90;;;;;;4974767;28;19910;-67
2023/10/19 11:16:38;;;;;;;;;;;15.40;99.90;;;;;;4975122;28;19918;-67
2023/10/19 11:19:04;;;;;;;;;;;15.30;99.90;;;;;;4975307;28;20053;-67
2023/10/19 11:21:30;;;;;;;;;;;15.30;99.90;;;;;;4977685;28;19957;-67
2023/10/19 11:23:56;;;;;;;;;;;15.30;99.90;;;;;;4982556;28;19986;-66
2023/10/19 11:26:24;;;;;;;;;;;15.20;99.90;;;;;;4987999;28;19961;-67
2023/10/19 11:29:00;;;;;;;;;;;15.20;99.90;;;;;;4982237;28;19957;-66
2023/10/19 11:31:27;;;;;;;;;;;15.20;99.90;;;;;;4979342;28;19914;-66
2023/10/19 11:33:55;;;;;;;;;;;15.10;99.90;;;;;;4978830;28;19918;-66
2023/10/19 11:36:21;;;;;;;;;;;15.10;99.90;;;;;;4978721;28;20022;-65
2023/10/19 11:38:48;;;;;;;;;;;15.10;99.90;;;;;;4978685;28;19933;-66
2023/10/19 11:41:14;;;;;;;;;;;15.00;99.90;;;;;;4979172;28;19975;-68
2023/10/19 11:43:40;;;;;;;;;;;15.00;99.90;;;;;;4978546;28;19914;-66
2023/10/19 11:46:06;;;;;;;;;;;15.00;99.90;;;;;;4978546;28;20016;-66
2023/10/19 11:48:35;;;;;;;;;;;15.00;99.90;;;;;;4978820;28;19914;-67
2023/10/19 11:51:04;;;;;;;;;;;15.10;99.90;;;;;;4978748;28;20002;-67
2023/10/19 11:53:32;;;;;;;;;;;15.10;99.90;;;;;;4978611;28;19917;-70
2023/10/19 11:55:59;;;;;;;;;;;15.20;99.90;;;;;;4980951;28;19953;-69
2023/10/19 11:58:24;;;;;;;;;;;15.20;99.90;;;;;;4978874;28;19911;-70
2023/10/19 12:00:51;;;;;;;;;;;15.30;99.90;;;;;;4979767;28;20403;-69
2023/10/19 12:03:18;;;;;;;;;;;15.30;99.90;;;;;;4978340;28;20365;-67
2023/10/19 12:05:44;;;;;;;;;;;15.40;99.90;;;;;;4978363;28;19917;-66
2023/10/19 12:08:09;;;;;;;;;;;15.40;99.90;;;;;;4978631;28;20001;-66
2023/10/19 12:10:38;;;;;;;;;;;15.50;99.90;;;;;;4978852;28;19965;-65
2023/10/19 12:13:07;;;;;;;;;;;15.60;99.90;;;;;;4978298;28;19946;-66
2023/10/19 12:15:32;;;;;;;;;;;15.60;99.90;;;;;;4977972;28;19976;-68
2023/10/19 12:17:59;;;;;;;;;;;15.70;99.90;;;;;;4977758;28;19910;-65
2023/10/19 12:20:25;;;;;;;;;;;15.70;99.90;;;;;;4977867;28;19910;-66
2023/10/19 12:22:53;;;;;;;;;;;15.80;99.90;;;;;;4977300;28;19910;-67
2023/10/19 12:25:21;;;;;;;;;;;15.80;99.90;;;;;;4976935;28;19914;-65
2023/10/19 12:27:46;;;;;;;;;;;15.80;99.90;;;;;;4976391;28;19910;-65
2023/10/19 12:30:22;;;;;;;;;;;15.90;99.90;;;;;;4976539;28;20005;-65
2023/10/19 12:32:49;;;;;;;;;;;16.10;99.90;;;;;;4975281;28;20400;-66
2023/10/19 12:35:15;;;;;;;;;;;16.20;99.90;;;;;;4976661;28;19910;-67
2023/10/19 12:37:46;;;;;;;;;;;16.30;99.90;;;;;;4976935;28;19910;-65
2023/10/19 12:40:26;;;;;;;;;;;16.20;99.90;;;;;;4977085;28;19910;-65
2023/10/19 12:42:55;;;;;;;;;;;16.20;99.90;;;;;;4976660;28;19910;-64
2023/10/19 12:45:24;;;;;;;;;;;16.20;99.90;;;;;;4975042;28;19914;-70
2023/10/19 12:47:51;;;;;;;;;;;16.20;99.90;;;;;;4975804;28;20383;-69
2023/10/19 12:50:25;;;;;;;;;;;16.10;99.90;;;;;;4976177;28;19911;-70
2023/10/19 12:52:50;;;;;;;;;;;16.10;99.90;;;;;;4976933;28;19910;-69
2023/10/19 12:55:16;;;;;;;;;;;16.10;99.90;;;;;;4975126;28;20381;-69
2023/10/19 12:57:42;;;;;;;;;;;16.10;99.90;;;;;;4978446;28;20022;-69
2023/10/19 13:00:26;;;;;;;;;;;16.10;99.90;;;;;;4979012;28;20008;-70
2023/10/19 13:02:59;;;;;;;;;;;16.10;99.90;;;;;;4981249;28;19910;-70
2023/10/19 13:05:31;;;;;;;;;;;16.10;99.90;;;;;;4984203;28;20395;-66
2023/10/19 13:07:58;;;;;;;;;;;16.10;99.90;;;;;;4981476;28;20009;-65
2023/10/19 13:10:32;;;;;;;;;;;16.10;99.90;;;;;;4979572;28;19910;-67
2023/10/19 13:13:04;;;;;;;;;;;16.10;99.90;;;;;;4978071;28;19910;-68
2023/10/19 13:15:31;;;;;;;;;;;16.10;99.90;;;;;;4918257;28;1731525;-67
2023/10/19 13:17:58;;;;;;;;;;;16.20;99.90;;;;;;4978648;28;20005;-67
2023/10/19 13:20:25;;;;;;;;;;;16.10;99.90;;;;;;4978519;28;19910;-65
2023/10/19 13:22:51;;;;;;;;;;;16.10;99.90;;;;;;4978121;28;19932;-70
2023/10/19 13:25:17;;;;;;;;;;;16.10;99.90;;;;;;4978397;28;20373;-67
2023/10/19 13:27:45;;;;;;;;;;;16.20;99.90;;;;;;4978803;28;20289;-69
2023/10/19 13:30:14;;;;;;;;;;;16.20;99.90;;;;;;4976920;28;19918;-68
2023/10/19 13:32:41;;;;;;;;;;;16.20;99.90;;;;;;4969753;28;19917;-71
2023/10/19 13:35:06;;;;;;;;;;;16.10;99.90;;;;;;4956885;28;19917;-68
2023/10/19 13:37:32;;;;;;;;;;;16.10;99.90;;;;;;4958734;28;20269;-68
2023/10/19 13:39:58;;;;;;;;;;;16.10;99.90;;;;;;4957722;28;19910;-66
2023/10/19 13:42:24;;;;;;;;;;;16.10;99.90;;;;;;4957625;28;19917;-67
2023/10/19 13:44:49;;;;;;;;;;;16.00;99.90;;;;;;4957790;28;20009;-68
2023/10/19 13:47:15;;;;;;;;;;;15.90;99.90;;;;;;4958597;28;19922;-67
2023/10/19 13:49:41;;;;;;;;;;;15.90;99.90;;;;;;4957779;28;19918;-67
2023/10/19 13:52:08;;;;;;;;;;;15.80;99.90;;;;;;4957588;28;20009;-66
2023/10/19 13:54:37;;;;;;;;;;;15.80;99.90;;;;;;4956862;28;19986;-67
2023/10/19 13:57:03;;;;;;;;;;;15.70;99.90;;;;;;4957677;28;19917;-68
2023/10/19 13:59:29;;;;;;;;;;;15.80;99.90;;;;;;4956691;28;19910;-68
2023/10/19 14:01:55;;;;;;;;;;;15.70;99.90;;;;;;4956569;28;19917;-68
2023/10/19 14:04:20;;;;;;;;;;;15.70;99.90;;;;;;4955883;28;19925;-68
2023/10/19 14:06:49;;;;;;;;;;;15.70;99.90;;;;;;4957179;28;19910;-68
2023/10/19 14:09:14;;;;;;;;;;;15.70;99.90;;;;;;4957012;28;19911;-65
2023/10/19 14:11:40;;;;;;;;;;;15.70;99.90;;;;;;4957271;28;19933;-64
2023/10/19 14:14:05;;;;;;;;;;;15.60;99.90;;;;;;4956395;28;19914;-64
2023/10/19 14:16:31;;;;;;;;;;;15.70;99.90;;;;;;4956364;28;20305;-63
2023/10/19 14:18:57;;;;;;;;;;;15.70;99.90;;;;;;4955033;28;19917;-64
2023/10/19 14:21:26;;;;;;;;;;;15.70;99.90;;;;;;4956301;28;19918;-64
2023/10/19 14:23:53;;;;;;;;;;;15.70;99.90;;;;;;4955212;28;20286;-67
2023/10/19 14:26:18;;;;;;;;;;;15.70;99.90;;;;;;4955439;28;19910;-68
2023/10/19 14:28:44;;;;;;;;;;;15.80;99.90;;;;;;4957493;28;19933;-68
2023/10/19 14:31:10;;;;;;;;;;;15.80;99.90;;;;;;4942418;28;19915;-68
2023/10/19 14:33:36;;;;;;;;;;;15.80;99.90;;;;;;4936416;29;20345;-68
2023/10/19 14:36:02;;;;;;;;;;;15.90;99.90;;;;;;4936964;29;19911;-68
2023/10/19 14:38:28;;;;;;;;;;;15.90;99.90;;;;;;4938752;29;20009;-68
2023/10/19 14:40:53;;;;;;;;;;;15.90;99.90;;;;;;4951456;28;19988;-67
2023/10/19 14:43:19;;;;;;;;;;;15.90;99.90;;;;;;4946399;29;19918;-68
2023/10/19 14:45:44;;;;;;;;;;;15.80;99.90;;;;;;4951213;28;19917;-66
2023/10/19 14:48:11;;;;;;;;;;;15.90;99.90;;;;;;4955265;28;19910;-68
2023/10/19 14:50:37;;;;;;;;;;;15.90;99.90;;;;;;4958610;29;19915;-68
2023/10/19 14:53:03;;;;;;;;;;;16.10;99.90;;;;;;4970579;28;19942;-69
2023/10/19 14:55:29;;;;;;;;;;;16.10;99.90;;;;;;4965503;28;19935;-68
2023/10/19 14:57:55;;;;;;;;;;;16.20;99.90;;;;;;4961281;29;19914;-67
2023/10/19 15:00:21;;;;;;;;;;;16.20;99.90;;;;;;4940212;28;19911;-67
2023/10/19 15:02:49;;;;;;;;;;;16.20;99.90;;;;;;4954433;28;19945;-67
2023/10/19 15:05:15;;;;;;;;;;;16.20;99.90;;;;;;4974809;28;19914;-67
2023/10/19 15:07:45;;;;;;;;;;;16.10;99.90;;;;;;4974886;28;19910;-67
2023/10/19 15:10:11;;;;;;;;;;;16.10;99.90;;;;;;4975106;28;19933;-68
2023/10/19 15:12:40;;;;;;;;;;;16.10;99.90;;;;;;4973428;28;20270;-68
2023/10/19 15:15:07;;;;;;;;;;;16.10;99.90;;;;;;4973340;28;20300;-68
2023/10/19 15:17:34;;;;;;;;;;;16.00;99.90;;;;;;4974859;28;20320;-68
2023/10/19 15:19:59;;;;;;;;;;;16.00;99.90;;;;;;4974830;28;19910;-67
2023/10/19 15:22:25;;;;;;;;;;;15.90;99.90;;;;;;4974738;28;20387;-67
2023/10/19 15:24:52;;;;;;;;;;;15.90;99.90;;;;;;4974665;28;20357;-67
2023/10/19 15:27:18;;;;;;;;;;;15.90;99.90;;;;;;4975281;28;20384;-68
2023/10/19 15:29:44;;;;;;;;;;;15.90;99.90;;;;;;4975041;28;19917;-68
2023/10/19 15:32:09;;;;;;;;;;;15.90;99.90;;;;;;4969261;28;19911;-67
2023/10/19 15:34:35;;;;;;;;;;;15.90;99.90;;;;;;4954189;28;19966;-67
2023/10/19 15:37:01;;;;;;;;;;;15.90;99.90;;;;;;4955421;28;19910;-66
2023/10/19 15:39:27;;;;;;;;;;;15.90;99.90;;;;;;4955387;28;19918;-66
2023/10/19 15:41:52;;;;;;;;;;;15.80;99.90;;;;;;4955696;28;19911;-66
2023/10/19 15:44:18;;;;;;;;;;;15.80;99.90;;;;;;4955109;28;19915;-66
2023/10/19 15:46:45;;;;;;;;;;;15.80;99.90;;;;;;4954346;28;19916;-66
2023/10/19 15:49:12;;;;;;;;;;;15.80;99.90;;;;;;4955244;28;19922;-66
2023/10/19 15:51:37;;;;;;;;;;;15.80;99.90;;;;;;4955072;28;19910;-66
2023/10/19 15:54:05;;;;;;;;;;;15.80;99.90;;;;;;4955220;28;20392;-66
2023/10/19 15:56:31;;;;;;;;;;;15.80;99.90;;;;;;4954986;28;19910;-66
2023/10/19 15:58:56;;;;;;;;;;;15.80;99.90;;;;;;4953792;29;20366;-66
2023/10/19 16:01:21;;;;;;;;;;;15.80;99.90;;;;;;4954865;28;19911;-67
2023/10/19 16:03:47;;;;;;;;;;;15.80;99.90;;;;;;4972014;28;19914;-67
2023/10/19 16:06:12;;;;;;;;;;;15.70;99.90;;;;;;4974775;28;19910;-66
2023/10/19 16:08:38;;;;;;;;;;;15.70;99.90;;;;;;4977675;28;19949;-66
2023/10/19 16:11:03;;;;;;;;;;;15.70;99.90;;;;;;4978292;28;19918;-67
2023/10/19 16:13:29;;;;;;;;;;;15.70;99.90;;;;;;4977723;28;20361;-66
2023/10/19 16:15:54;;;;;;;;;;;15.70;99.90;;;;;;4976489;28;19922;-68
2023/10/19 16:18:20;;;;;;;;;;;15.70;99.90;;;;;;4977509;28;19918;-68
2023/10/19 16:20:45;;;;;;;;;;;15.60;99.90;;;;;;4978027;28;20447;-68
2023/10/19 16:23:11;;;;;;;;;;;15.70;99.90;;;;;;4977681;28;20447;-68
2023/10/19 16:25:36;;;;;;;;;;;15.60;99.90;;;;;;4977200;28;20269;-67
2023/10/19 16:28:02;;;;;;;;;;;15.60;99.90;;;;;;4977753;28;19910;-67
2023/10/19 16:30:31;;;;;;;;;;;15.60;99.90;;;;;;4976267;28;20392;-68
2023/10/19 16:32:57;;;;;;;;;;;15.70;99.90;;;;;;4975889;28;19918;-70
2023/10/19 16:35:23;;;;;;;;;;;15.80;99.90;;;;;;4977914;28;19910;-70
2023/10/19 16:37:48;;;;;;;;;;;15.70;99.90;;;;;;4977981;28;19956;-69
2023/10/19 16:40:14;;;;;;;;;;;15.80;99.90;;;;;;4977661;28;19916;-69
2023/10/19 16:42:39;;;;;;;;;;;15.80;99.90;;;;;;4975944;28;19910;-69
2023/10/19 16:45:06;;;;;;;;;;;15.70;99.90;;;;;;4977431;28;19952;-69
2023/10/19 16:47:32;;;;;;;;;;;15.70;99.90;;;;;;4977026;28;20285;-68
2023/10/19 16:49:57;;;;;;;;;;;15.70;99.90;;;;;;4977157;28;19910;-68
2023/10/19 16:52:23;;;;;;;;;;;15.70;99.90;;;;;;4977163;28;19910;-69
2023/10/19 16:54:49;;;;;;;;;;;15.70;99.90;;;;;;4977039;28;19910;-67
2023/10/19 16:57:14;;;;;;;;;;;15.70;99.90;;;;;;4976861;28;19910;-68
2023/10/19 16:59:40;;;;;;;;;;;15.70;99.90;;;;;;4976850;28;19997;-67
2023/10/19 17:02:05;;;;;;;;;;;15.70;99.90;;;;;;4974123;28;19914;-69
2023/10/19 17:04:31;;;;;;;;;;;15.70;99.90;;;;;;4959839;28;20013;-69
2023/10/19 17:06:57;;;;;;;;;;;15.60;99.90;;;;;;4974808;28;20327;-69
2023/10/19 17:09:22;;;;;;;;;;;15.70;99.90;;;;;;4958419;28;19914;-68
2023/10/19 17:11:49;;;;;;;;;;;15.60;99.90;;;;;;4957579;28;19958;-69
2023/10/19 17:14:15;;;;;;;;;;;15.60;99.90;;;;;;4957281;28;19961;-69
2023/10/19 17:16:41;;;;;;;;;;;15.60;99.90;;;;;;4957229;28;19922;-65
2023/10/19 17:19:07;;;;;;;;;;;15.70;99.90;;;;;;4956580;28;20274;-69
2023/10/19 17:21:33;;;;;;;;;;;15.60;99.90;;;;;;4956054;29;19921;-69
2023/10/19 17:23:58;;;;;;;;;;;15.60;99.90;;;;;;4957110;28;19915;-69
2023/10/19 17:26:24;;;;;;;;;;;15.60;99.90;;;;;;4957249;28;19910;-69
2023/10/19 17:28:53;;;;;;;;;;;15.60;99.90;;;;;;4957079;28;20065;-69
2023/10/19 17:31:19;;;;;;;;;;;15.60;99.90;;;;;;4957031;28;19910;-69
2023/10/19 17:33:45;;;;;;;;;;;15.60;99.90;;;;;;4973620;28;19910;-69
2023/10/19 17:36:10;;;;;;;;;;;15.50;99.90;;;;;;4977929;28;20388;-69
2023/10/19 17:38:36;;;;;;;;;;;15.50;99.90;;;;;;4977782;28;19965;-67
2023/10/19 17:41:01;;;;;;;;;;;15.60;99.90;;;;;;4976321;28;19914;-68
2023/10/19 17:43:27;;;;;;;;;;;15.60;99.90;;;;;;4974948;28;19918;-68
2023/10/19 17:45:52;;;;;;;;;;;15.60;99.90;;;;;;4976493;28;19989;-69
2023/10/19 17:48:19;;;;;;;;;;;15.60;99.90;;;;;;4975967;28;20431;-69
2023/10/19 17:50:44;;;;;;;;;;;15.60;99.90;;;;;;4976173;28;19933;-68
2023/10/19 17:53:09;;;;;;;;;;;15.50;99.90;;;;;;4976397;28;19914;-68
2023/10/19 17:55:36;;;;;;;;;;;15.50;99.90;;;;;;4975888;28;19914;-67
2023/10/19 17:58:04;;;;;;;;;;;15.50;99.90;;;;;;4976230;28;20432;-68
2023/10/19 18:00:30;;;;;;;;;;;15.50;99.90;;;;;;4975804;28;19910;-68
2023/10/19 18:02:55;;;;;;;;;;;15.50;99.90;;;;;;4975377;28;20390;-69
2023/10/19 18:05:21;;;;;;;;;;;15.60;99.90;;;;;;4976080;28;20121;-69
2023/10/19 18:07:46;;;;;;;;;;;15.50;99.90;;;;;;4975841;28;19938;-69
2023/10/19 18:10:12;;;;;;;;;;;15.50;99.90;;;;;;4976251;28;20354;-68
2023/10/19 18:12:41;;;;;;;;;;;15.50;99.90;;;;;;4975606;28;20304;-69
2023/10/19 18:15:07;;;;;;;;;;;15.50;99.90;;;;;;4974213;28;20004;-70